createdAt,value
2023-04-15T00:02:32.895Z,8.00
2023-04-15T00:06:37.934Z,8.00
2023-04-15T00:10:40.756Z,8.00
2023-04-15T00:14:45.084Z,8.00
2023-04-15T00:18:47.903Z,8.10
2023-04-15T00:22:52.406Z,8.10
2023-04-15T00:26:55.208Z,8.10
2023-04-15T00:30:58.041Z,8.10
2023-04-15T00:35:01.001Z,8.10
2023-04-15T00:39:05.430Z,8.00
2023-04-15T00:43:08.221Z,8.00
2023-04-15T00:47:11.802Z,8.00
2023-04-15T00:51:14.778Z,8.00
2023-04-15T00:55:19.312Z,8.00
2023-04-15T00:59:22.463Z,8.00
2023-04-15T01:03:25.495Z,8.00
2023-04-15T01:07:28.534Z,8.00
2023-04-15T01:11:34.282Z,8.00
2023-04-15T01:15:37.605Z,8.00
2023-04-15T01:19:40.723Z,8.00
2023-04-15T01:23:45.474Z,8.00
2023-04-15T01:27:49.612Z,8.00
2023-04-15T01:31:53.233Z,8.00
2023-04-15T01:35:56.651Z,8.00
2023-04-15T01:39:59.790Z,8.00
2023-04-15T01:44:03.992Z,8.00
2023-04-15T01:48:07.170Z,8.00
2023-04-15T01:52:10.452Z,7.90
2023-04-15T01:56:15.296Z,7.90
2023-04-15T02:00:20.766Z,7.90
2023-04-15T02:04:23.709Z,7.90
2023-04-15T02:08:26.813Z,7.90
2023-04-15T02:12:29.628Z,7.90
2023-04-15T02:16:34.261Z,7.80
2023-04-15T02:20:38.025Z,7.80
2023-04-15T02:24:40.838Z,7.80
2023-04-15T02:28:43.652Z,7.80
2023-04-15T02:32:48.487Z,7.80
2023-04-15T02:36:55.011Z,7.80
2023-04-15T02:40:57.809Z,7.90
2023-04-15T02:45:00.836Z,7.90
2023-04-15T02:49:05.016Z,7.90
2023-04-15T02:53:08.111Z,7.90
2023-04-15T02:57:13.029Z,7.80
2023-04-15T03:01:16.059Z,7.90
2023-04-15T03:05:20.384Z,7.90
2023-04-15T03:09:23.234Z,7.90
2023-04-15T03:13:26.059Z,7.90
2023-04-15T03:17:29.917Z,7.90
2023-04-15T03:21:34.185Z,7.90
2023-04-15T03:25:38.193Z,7.80
2023-04-15T03:29:41.187Z,7.80
2023-04-15T03:33:44.116Z,7.80
2023-04-15T03:37:49.261Z,7.80
2023-04-15T03:41:52.084Z,7.80
2023-04-15T03:45:54.895Z,7.80
2023-04-15T03:49:57.710Z,7.70
2023-04-15T03:54:02.142Z,7.70
2023-04-15T03:58:04.981Z,7.70
2023-04-15T04:02:07.963Z,7.70
2023-04-15T04:06:12.480Z,7.60
2023-04-15T04:10:16.979Z,7.60
2023-04-15T04:14:19.796Z,7.60
2023-04-15T04:18:22.724Z,7.60
2023-04-15T04:22:25.777Z,7.60
2023-04-15T04:26:29.899Z,7.60
2023-04-15T04:30:33.809Z,7.60
2023-04-15T04:34:36.627Z,7.60
2023-04-15T04:38:39.439Z,7.60
2023-04-15T04:42:43.716Z,7.60
2023-04-15T04:46:46.880Z,7.60
2023-04-15T04:50:50.042Z,7.60
2023-04-15T04:54:53.054Z,7.70
2023-04-15T04:58:57.434Z,7.70
2023-04-15T05:03:00.877Z,7.70
2023-04-15T05:07:03.863Z,7.70
2023-04-15T05:11:07.356Z,7.70
2023-04-15T05:15:12.184Z,7.80
2023-04-15T05:19:14.984Z,7.80
2023-04-15T05:23:17.830Z,7.80
2023-04-15T05:27:20.684Z,7.80
2023-04-15T05:31:24.956Z,7.80
2023-04-15T05:35:27.864Z,7.90
2023-04-15T05:39:32.655Z,7.90
2023-04-15T05:43:35.577Z,7.90
2023-04-15T05:47:40.898Z,7.90
2023-04-15T05:51:43.735Z,7.90
2023-04-15T05:55:46.849Z,8.00
2023-04-15T05:59:51.642Z,7.90
2023-04-15T06:03:56.030Z,7.90
2023-04-15T06:08:00.013Z,7.90
2023-04-15T06:12:03.071Z,7.90
2023-04-15T06:16:06.358Z,8.00
2023-04-15T06:20:11.332Z,8.00
2023-04-15T06:24:14.293Z,8.00
2023-04-15T06:28:17.113Z,8.00
2023-04-15T06:32:19.950Z,8.00
2023-04-15T06:36:24.143Z,8.10
2023-04-15T06:40:27.083Z,8.10
2023-04-15T06:44:32.106Z,8.10
2023-04-15T06:48:36.638Z,8.10
2023-04-15T06:52:41.034Z,8.10
2023-04-15T06:56:43.867Z,8.10
2023-04-15T07:00:46.825Z,8.10
2023-04-15T07:04:49.964Z,8.10
2023-04-15T07:08:54.201Z,8.10
2023-04-15T07:12:57.476Z,8.10
2023-04-15T07:17:00.712Z,8.10
2023-04-15T07:21:03.762Z,8.10
2023-04-15T07:25:09.029Z,8.10
2023-04-15T07:29:11.916Z,8.10
2023-04-15T07:33:14.769Z,8.10
2023-04-15T07:37:20.258Z,8.10
2023-04-15T07:41:24.422Z,8.20
2023-04-15T07:45:27.436Z,8.20
2023-04-15T07:49:30.240Z,8.20
2023-04-15T07:53:33.677Z,8.20
2023-04-15T07:57:38.212Z,8.20
2023-04-15T08:01:41.208Z,8.20
2023-04-15T08:05:44.742Z,8.30
2023-04-15T08:09:48.257Z,8.30
2023-04-15T08:13:53.236Z,8.30
2023-04-15T08:17:56.089Z,8.30
2023-04-15T08:21:58.935Z,8.30
2023-04-15T08:26:01.751Z,8.30
2023-04-15T08:30:06.830Z,8.40
2023-04-15T08:34:10.370Z,8.40
2023-04-15T08:38:13.186Z,8.40
2023-04-15T08:42:18.419Z,8.50
2023-04-15T08:46:23.197Z,8.50
2023-04-15T08:50:27.859Z,8.50
2023-04-15T08:54:31.182Z,8.60
2023-04-15T08:58:34.422Z,8.60
2023-04-15T09:02:38.674Z,8.60
2023-04-15T09:06:42.588Z,8.70
2023-04-15T09:10:45.743Z,8.70
2023-04-15T09:14:49.480Z,8.70
2023-04-15T09:18:53.770Z,8.80
2023-04-15T09:22:56.860Z,8.80
2023-04-15T09:26:59.725Z,8.90
2023-04-15T09:31:03.326Z,8.90
2023-04-15T09:35:13.965Z,9.00
2023-04-15T09:39:16.890Z,9.00
2023-04-15T09:43:19.763Z,9.00
2023-04-15T09:47:29.331Z,9.10
2023-04-15T09:51:36.503Z,9.10
2023-04-15T09:55:39.357Z,9.20
2023-04-15T09:59:42.493Z,9.20
2023-04-15T10:03:46.968Z,9.20
2023-04-15T10:07:51.622Z,9.20
2023-04-15T10:11:54.708Z,9.20
2023-04-15T10:15:59.059Z,9.20
2023-04-15T10:20:02.069Z,9.30
2023-04-15T10:24:07.160Z,9.30
2023-04-15T10:28:10.090Z,9.30
2023-04-15T10:32:13.729Z,9.30
2023-04-15T10:36:16.868Z,9.30
2023-04-15T10:40:29.205Z,9.30
2023-04-15T10:44:32.016Z,9.40
2023-04-15T10:48:34.862Z,9.40
2023-04-15T10:52:41.223Z,9.40
2023-04-15T10:56:45.757Z,9.40
2023-04-15T11:00:52.310Z,9.40
2023-04-15T11:04:56.506Z,9.40
2023-04-15T11:09:02.685Z,9.40
2023-04-15T11:13:15.973Z,9.40
2023-04-15T11:17:28.681Z,9.50
2023-04-15T11:21:31.720Z,9.50
2023-04-15T11:25:35.096Z,9.50
2023-04-15T11:29:39.844Z,9.50
2023-04-15T11:33:46.990Z,9.50
2023-04-15T11:37:50.501Z,9.50
2023-04-15T11:41:53.303Z,9.60
2023-04-15T11:45:58.296Z,9.60
2023-04-15T11:50:14.748Z,9.60
2023-04-15T11:54:19.934Z,9.60
2023-04-15T11:58:23.503Z,9.70
2023-04-15T12:02:33.163Z,9.70
2023-04-15T12:06:37.283Z,9.70
2023-04-15T12:10:40.162Z,9.70
2023-04-15T12:14:43.272Z,9.80
2023-04-15T12:18:48.384Z,9.80
2023-04-15T12:22:51.238Z,9.80
2023-04-15T12:26:55.056Z,9.80
2023-04-15T12:30:57.952Z,9.80
2023-04-15T12:35:02.200Z,9.90
2023-04-15T12:39:06.276Z,9.90
2023-04-15T12:43:09.136Z,9.90
2023-04-15T12:47:12.444Z,10.00
2023-04-15T12:51:16.644Z,10.00
2023-04-15T12:55:19.430Z,10.00
2023-04-15T12:59:24.170Z,10.10
2023-04-15T13:03:27.341Z,10.10
2023-04-15T13:07:31.658Z,10.10
2023-04-15T13:11:34.758Z,10.10
2023-04-15T13:15:38.100Z,10.20
2023-04-15T13:19:40.903Z,10.20
2023-04-15T13:23:45.121Z,10.20
2023-04-15T13:27:48.152Z,10.20
2023-04-15T13:31:51.068Z,10.30
2023-04-15T13:36:01.839Z,10.30
2023-04-15T13:40:07.276Z,10.30
2023-04-15T13:44:10.134Z,10.30
2023-04-15T13:48:12.934Z,10.30
2023-04-15T13:52:26.884Z,10.30
2023-04-15T13:56:32.511Z,10.30
2023-04-15T14:00:36.095Z,10.30
2023-04-15T14:04:38.931Z,10.40
2023-04-15T14:08:41.756Z,10.40
2023-04-15T14:12:45.892Z,10.40
2023-04-15T14:16:49.013Z,10.40
2023-04-15T14:20:51.867Z,10.40
2023-04-15T14:24:55.745Z,10.40
2023-04-15T14:28:59.909Z,10.40
2023-04-15T14:33:02.840Z,10.40
2023-04-15T14:37:06.041Z,10.40
2023-04-15T14:41:09.122Z,10.50
2023-04-15T14:45:13.520Z,10.50
2023-04-15T14:49:16.338Z,10.50
2023-04-15T14:53:19.153Z,10.60
2023-04-15T14:57:21.976Z,10.60
2023-04-15T15:01:26.158Z,10.60
2023-04-15T15:05:31.041Z,10.70
2023-04-15T15:09:35.013Z,10.70
2023-04-15T15:17:42.461Z,10.80
2023-04-15T15:21:45.497Z,10.90
2023-04-15T15:25:48.326Z,10.90
2023-04-15T15:29:51.165Z,10.90
2023-04-15T15:33:55.391Z,11.00
2023-04-15T15:37:58.240Z,11.00
2023-04-15T15:42:01.121Z,11.00
2023-04-15T15:46:04.385Z,11.00
2023-04-15T15:50:09.029Z,11.00
2023-04-15T15:54:11.969Z,11.00
2023-04-15T15:58:14.779Z,11.10
2023-04-15T16:02:17.607Z,11.10
2023-04-15T16:06:21.934Z,11.10
2023-04-15T16:10:24.740Z,11.20
2023-04-15T16:14:27.587Z,11.30
2023-04-15T16:18:30.593Z,11.50
2023-04-15T16:22:35.310Z,11.50
2023-04-15T16:26:38.135Z,11.70
2023-04-15T16:30:42.350Z,11.80
2023-04-15T16:34:45.164Z,11.80
2023-04-15T16:38:49.356Z,11.80
2023-04-15T16:42:52.270Z,11.80
2023-04-15T16:46:59.528Z,11.90
2023-04-15T16:51:02.535Z,11.90
2023-04-15T16:55:07.195Z,11.90
2023-04-15T16:59:10.014Z,11.80
2023-04-15T17:03:15.821Z,11.80
2023-04-15T17:07:18.735Z,11.80
2023-04-15T17:11:22.882Z,11.80
2023-04-15T17:15:26.053Z,11.70
2023-04-15T17:19:28.940Z,11.70
2023-04-15T17:23:31.783Z,11.70
2023-04-15T17:27:36.031Z,11.60
2023-04-15T17:31:38.993Z,11.60
2023-04-15T17:35:41.933Z,11.50
2023-04-15T17:39:44.916Z,11.50
2023-04-15T17:43:49.102Z,11.50
2023-04-15T17:47:52.015Z,11.50
2023-04-15T17:51:55.561Z,11.40
2023-04-15T17:55:59.616Z,11.40
2023-04-15T18:00:04.119Z,11.40
2023-04-15T18:04:07.201Z,11.30
2023-04-15T18:08:11.494Z,11.30
2023-04-15T18:12:14.307Z,11.30
2023-04-15T18:16:19.584Z,11.30
2023-04-15T18:20:22.577Z,11.30
2023-04-15T18:24:25.406Z,11.20
2023-04-15T18:28:29.141Z,11.20
2023-04-15T18:32:33.340Z,11.20
2023-04-15T18:36:36.210Z,11.20
2023-04-15T18:40:39.093Z,11.10
2023-04-15T18:44:41.914Z,11.10
2023-04-15T18:48:46.075Z,11.10
2023-04-15T18:52:48.942Z,11.10
2023-04-15T18:56:52.180Z,11.10
2023-04-15T19:00:55.173Z,11.00
2023-04-15T19:05:01.889Z,11.00
2023-04-15T19:09:05.037Z,11.00
2023-04-15T19:13:08.007Z,11.00
2023-04-15T19:17:10.966Z,11.00
2023-04-15T19:21:15.662Z,11.00
2023-04-15T19:25:18.721Z,11.00
2023-04-15T19:29:21.999Z,11.00
2023-04-15T19:33:27.353Z,11.00
2023-04-15T19:37:31.603Z,11.00
2023-04-15T19:41:34.438Z,11.00
2023-04-15T19:45:37.314Z,11.00
2023-04-15T19:49:42.036Z,11.00
2023-04-15T19:53:46.490Z,10.90
2023-04-15T19:57:49.708Z,10.90
2023-04-15T20:01:53.401Z,10.90
2023-04-15T20:05:56.669Z,10.80
2023-04-15T20:10:00.857Z,10.80
2023-04-15T20:14:03.933Z,10.80
2023-04-15T20:18:06.748Z,10.70
2023-04-15T20:22:09.645Z,10.70
2023-04-15T20:26:14.214Z,10.60
2023-04-15T20:30:17.077Z,10.60
2023-04-15T20:34:19.926Z,10.50
2023-04-15T20:38:23.054Z,10.50
2023-04-15T20:42:27.330Z,10.40
2023-04-15T20:46:30.892Z,10.40
2023-04-15T20:50:33.814Z,10.30
2023-04-15T20:54:36.800Z,10.30
2023-04-15T20:58:41.766Z,10.30
2023-04-15T21:02:44.737Z,10.20
2023-04-15T21:06:47.979Z,10.10
2023-04-15T21:10:51.068Z,10.10
2023-04-15T21:14:55.527Z,10.00
2023-04-15T21:18:58.317Z,9.90
2023-04-15T21:23:01.116Z,9.80
2023-04-15T21:27:03.938Z,9.70
2023-04-15T21:31:08.106Z,9.60
2023-04-15T21:35:10.952Z,9.60
2023-04-15T21:39:13.784Z,9.60
2023-04-15T21:43:16.621Z,9.50
2023-04-15T21:47:20.952Z,9.50
2023-04-15T21:51:24.075Z,9.50
2023-04-15T21:55:26.994Z,9.60
2023-04-15T21:59:29.781Z,9.60
2023-04-15T22:03:37.002Z,9.70
2023-04-15T22:07:39.993Z,9.70
2023-04-15T22:11:42.816Z,9.70
2023-04-15T22:15:45.675Z,9.80
2023-04-15T22:19:49.819Z,9.80
2023-04-15T22:23:52.909Z,9.80
2023-04-15T22:28:15.681Z,9.90
2023-04-15T22:32:18.494Z,9.90
2023-04-15T22:36:22.669Z,9.90
2023-04-15T22:40:25.515Z,10.00
2023-04-15T22:44:28.323Z,10.00
2023-04-15T22:48:31.267Z,10.00
2023-04-15T22:52:35.518Z,10.00
2023-04-15T22:56:38.388Z,10.00
2023-04-15T23:00:41.233Z,10.10
2023-04-15T23:04:44.144Z,10.10
2023-04-15T23:08:48.411Z,10.10
2023-04-15T23:12:51.270Z,10.10
2023-04-15T23:16:54.089Z,10.10
2023-04-15T23:20:57.262Z,10.10
2023-04-15T23:25:01.453Z,10.10
2023-04-15T23:29:04.255Z,10.10
2023-04-15T23:33:07.050Z,10.10
2023-04-15T23:37:09.902Z,10.20
2023-04-15T23:41:14.083Z,10.20
2023-04-15T23:45:16.889Z,10.20
2023-04-15T23:49:20.476Z,10.20
2023-04-15T23:53:23.498Z,10.20
2023-04-15T23:57:27.751Z,10.20
